createdAt,value
2019-01-29T00:00:30.142Z,923.5
2019-01-29T00:01:30.459Z,923.6
2019-01-29T00:02:30.356Z,923.7
2019-01-29T00:03:30.232Z,923.6
2019-01-29T00:04:29.944Z,923.5
2019-01-29T00:05:29.892Z,923.6
2019-01-29T00:06:29.624Z,923.6
2019-01-29T00:07:29.374Z,923.6
2019-01-29T00:08:29.108Z,923.6
2019-01-29T00:09:28.856Z,923.5
2019-01-29T00:10:28.586Z,923.5
2019-01-29T00:11:28.896Z,923.5
2019-01-29T00:12:28.790Z,923.5
2019-01-29T00:13:28.674Z,923.4
2019-01-29T00:14:28.564Z,923.4
2019-01-29T00:15:29.488Z,923.6
2019-01-29T00:16:32.188Z,923.5
2019-01-29T00:17:32.084Z,923.6
2019-01-29T00:18:31.965Z,923.7
2019-01-29T00:19:31.867Z,923.6
2019-01-29T00:20:32.750Z,923.7
2019-01-29T00:21:33.642Z,923.5
2019-01-29T00:22:34.520Z,923.7
2019-01-29T00:23:34.408Z,923.6
2019-01-29T00:24:34.303Z,923.6
2019-01-29T00:25:34.194Z,922
2019-01-29T00:26:34.147Z,923.6
2019-01-29T00:27:37.177Z,923.6
2019-01-29T00:28:37.093Z,923.6
2019-01-29T00:29:36.978Z,923
2019-01-29T00:30:37.589Z,923.6
2019-01-29T00:31:37.972Z,923.6
2019-01-29T00:32:37.895Z,923.7
2019-01-29T00:33:38.005Z,923.6
2019-01-29T00:34:37.891Z,923.6
2019-01-29T00:35:37.764Z,923.6
2019-01-29T00:36:37.677Z,923.7
2019-01-29T00:37:37.813Z,923.7
2019-01-29T00:38:37.723Z,923.6
2019-01-29T00:39:37.604Z,923.7
2019-01-29T00:40:40.529Z,923.6
2019-01-29T00:41:40.849Z,923.7
2019-01-29T00:42:40.976Z,923.8
2019-01-29T00:43:40.877Z,923.8
2019-01-29T00:44:40.780Z,922.2
2019-01-29T00:45:40.687Z,923.7
2019-01-29T00:46:40.591Z,923.7
2019-01-29T00:47:40.501Z,923.7
2019-01-29T00:48:40.399Z,923.7
2019-01-29T00:49:40.298Z,923.8
2019-01-29T00:50:40.201Z,923.8
2019-01-29T00:51:40.753Z,923.9
2019-01-29T00:52:43.184Z,923.3
2019-01-29T00:53:43.063Z,923.7
2019-01-29T00:54:42.959Z,923.9
2019-01-29T00:55:43.869Z,924
2019-01-29T00:56:43.817Z,922.4
2019-01-29T00:57:43.715Z,923.9
2019-01-29T00:58:43.605Z,923.8
2019-01-29T00:59:43.525Z,923.8
2019-01-29T01:00:43.428Z,923.9
2019-01-29T01:01:43.762Z,924.1
2019-01-29T01:02:43.685Z,924.1
2019-01-29T01:03:43.618Z,924.2
2019-01-29T01:04:43.347Z,924.1
2019-01-29T01:05:43.092Z,924.1
2019-01-29T01:06:42.827Z,924.2
2019-01-29T01:07:42.562Z,924.2
2019-01-29T01:08:42.287Z,924.2
2019-01-29T01:09:42.018Z,924.2
2019-01-29T01:10:41.775Z,924.2
2019-01-29T01:11:41.937Z,924.2
2019-01-29T01:12:41.673Z,924.1
2019-01-29T01:13:41.395Z,924.2
2019-01-29T01:14:41.305Z,924.2
2019-01-29T01:15:41.057Z,924.1
2019-01-29T01:16:40.806Z,924.3
2019-01-29T01:17:40.557Z,924.3
2019-01-29T01:18:40.287Z,924.3
2019-01-29T01:19:40.183Z,924.3
2019-01-29T01:20:39.915Z,924.3
2019-01-29T01:21:40.217Z,924.3
2019-01-29T01:22:40.120Z,924.3
2019-01-29T01:23:40.009Z,924.3
2019-01-29T01:24:39.919Z,924.3
2019-01-29T01:25:39.821Z,924.3
2019-01-29T01:26:39.700Z,924.1
2019-01-29T01:27:39.619Z,924.3
2019-01-29T01:28:39.577Z,924.3
2019-01-29T01:29:39.741Z,924.2
2019-01-29T01:30:39.748Z,924.3
2019-01-29T01:31:40.120Z,924.3
2019-01-29T01:32:40.009Z,924.2
2019-01-29T01:33:42.656Z,924.3
2019-01-29T01:34:42.543Z,924.2
2019-01-29T01:35:42.445Z,924.3
2019-01-29T01:36:42.335Z,924.2
2019-01-29T01:37:42.278Z,924.3
2019-01-29T01:38:42.161Z,924.3
2019-01-29T01:39:42.055Z,923.5
2019-01-29T01:40:41.961Z,924.3
2019-01-29T01:41:42.295Z,924.2
2019-01-29T01:42:42.178Z,924.3
2019-01-29T01:43:42.059Z,924.2
2019-01-29T01:44:41.937Z,924.2
2019-01-29T01:45:41.841Z,924.2
2019-01-29T01:46:41.727Z,924.3
2019-01-29T01:47:41.641Z,924.3
2019-01-29T01:48:41.522Z,924.4
2019-01-29T01:49:41.471Z,924.4
2019-01-29T01:50:41.375Z,924.4
2019-01-29T01:51:41.670Z,924.4
2019-01-29T01:52:41.643Z,924.5
2019-01-29T01:53:41.509Z,924.4
2019-01-29T01:54:41.385Z,924.4
2019-01-29T01:55:41.284Z,924.4
2019-01-29T01:56:41.170Z,924.5
2019-01-29T01:57:41.085Z,924.5
2019-01-29T01:58:40.965Z,924.5
2019-01-29T01:59:40.849Z,924.4
2019-01-29T02:00:40.760Z,924.5
2019-01-29T02:01:41.099Z,924.5
2019-01-29T02:02:40.999Z,924.6
2019-01-29T02:03:40.875Z,924.4
2019-01-29T02:04:40.749Z,924.6
2019-01-29T02:05:40.659Z,924.7
2019-01-29T02:06:40.529Z,924.6
2019-01-29T02:07:40.412Z,924.6
2019-01-29T02:08:40.307Z,924.6
2019-01-29T02:09:40.182Z,924.7
2019-01-29T02:10:40.077Z,924.6
2019-01-29T02:11:40.399Z,924.6
2019-01-29T02:12:40.313Z,924.6
2019-01-29T02:13:40.211Z,924.6
2019-01-29T02:14:40.106Z,924.6
2019-01-29T02:15:39.999Z,924.5
2019-01-29T02:16:39.892Z,924.5
2019-01-29T02:17:39.785Z,924.5
2019-01-29T02:18:39.679Z,924.5
2019-01-29T02:19:39.575Z,924.5
2019-01-29T02:20:39.554Z,924.4
2019-01-29T02:21:39.951Z,924.5
2019-01-29T02:22:39.855Z,924.6
2019-01-29T02:23:39.745Z,924.6
2019-01-29T02:24:39.477Z,924.5
2019-01-29T02:25:39.197Z,924.3
2019-01-29T02:26:38.935Z,924.5
2019-01-29T02:27:38.673Z,924.4
2019-01-29T02:28:38.397Z,924.6
2019-01-29T02:29:38.121Z,924.6
2019-01-29T02:30:37.845Z,924.6
2019-01-29T02:31:38.202Z,923.8
2019-01-29T02:32:38.091Z,924.5
2019-01-29T02:33:37.989Z,924.7
2019-01-29T02:34:37.880Z,924.6
2019-01-29T02:35:37.758Z,924.7
2019-01-29T02:36:37.662Z,924.7
2019-01-29T02:37:38.593Z,924.7
2019-01-29T02:38:38.490Z,924.7
2019-01-29T02:39:38.374Z,924.7
2019-01-29T02:40:38.292Z,924.7
2019-01-29T02:41:38.612Z,924.7
2019-01-29T02:42:38.556Z,924.7
2019-01-29T02:43:38.452Z,924.8
2019-01-29T02:44:38.331Z,924.7
2019-01-29T02:45:38.235Z,924.7
2019-01-29T02:46:38.135Z,924.7
2019-01-29T02:47:38.034Z,924.8
2019-01-29T02:48:37.958Z,924.7
2019-01-29T02:49:37.840Z,924.8
2019-01-29T02:50:37.714Z,923.2
2019-01-29T02:51:38.027Z,924.8
2019-01-29T02:52:37.907Z,924.8
2019-01-29T02:53:37.849Z,924.8
2019-01-29T02:54:37.584Z,924.9
2019-01-29T02:55:37.308Z,924.8
2019-01-29T02:56:37.030Z,924.7
2019-01-29T02:57:36.779Z,924.9
2019-01-29T02:58:36.532Z,924.8
2019-01-29T02:59:36.264Z,924.9
2019-01-29T03:00:35.988Z,924.8
2019-01-29T03:01:36.282Z,924.9
2019-01-29T03:02:36.170Z,924.9
2019-01-29T03:03:36.106Z,925
2019-01-29T03:04:36.066Z,924.9
2019-01-29T03:05:35.974Z,924.9
2019-01-29T03:06:35.858Z,924.8
2019-01-29T03:07:35.733Z,925
2019-01-29T03:08:35.654Z,925
2019-01-29T03:09:35.536Z,925
2019-01-29T03:10:35.420Z,925
2019-01-29T03:11:35.738Z,925
2019-01-29T03:12:35.630Z,925
2019-01-29T03:13:35.569Z,925
2019-01-29T03:14:35.459Z,925.1
2019-01-29T03:15:35.418Z,924.8
2019-01-29T03:16:35.331Z,924.9
2019-01-29T03:17:35.238Z,924.9
2019-01-29T03:18:35.115Z,925.1
2019-01-29T03:19:35.026Z,925
2019-01-29T03:20:34.914Z,925.2
2019-01-29T03:21:35.254Z,925
2019-01-29T03:22:36.174Z,925.1
2019-01-29T03:23:36.050Z,925.3
2019-01-29T03:24:35.993Z,925.2
2019-01-29T03:25:35.886Z,925.1
2019-01-29T03:26:35.774Z,925.2
2019-01-29T03:27:35.645Z,925.2
2019-01-29T03:28:35.527Z,925.3
2019-01-29T03:29:35.420Z,925.2
2019-01-29T03:30:35.399Z,925.3
2019-01-29T03:31:35.784Z,925.4
2019-01-29T03:32:35.738Z,925.3
2019-01-29T03:33:35.637Z,925.3
2019-01-29T03:34:35.524Z,925.3
2019-01-29T03:35:35.426Z,925.3
2019-01-29T03:36:35.346Z,925.1
2019-01-29T03:37:35.249Z,925.1
2019-01-29T03:38:35.134Z,925.3
2019-01-29T03:39:35.022Z,925.3
2019-01-29T03:40:34.917Z,925.3
2019-01-29T03:41:35.322Z,925.3
2019-01-29T03:42:35.208Z,925.4
2019-01-29T03:43:35.098Z,925.4
2019-01-29T03:44:34.982Z,925.4
2019-01-29T03:45:34.887Z,925.2
2019-01-29T03:46:34.808Z,925.2
2019-01-29T03:47:34.686Z,925.4
2019-01-29T03:48:34.608Z,925.2
2019-01-29T03:49:34.513Z,925.3
2019-01-29T03:50:34.398Z,925.4
2019-01-29T03:51:34.840Z,924.2
2019-01-29T03:52:34.755Z,925.4
2019-01-29T03:53:39.145Z,925.3
2019-01-29T03:54:39.048Z,925.4
2019-01-29T03:55:38.795Z,925.5
2019-01-29T03:56:38.560Z,925.5
2019-01-29T03:57:38.318Z,925.6
2019-01-29T03:58:38.050Z,925.4
2019-01-29T03:59:37.774Z,925.4
2019-01-29T04:00:37.536Z,925.6
2019-01-29T04:01:37.708Z,925.5
2019-01-29T04:02:37.543Z,925.5
2019-01-29T04:03:37.272Z,925.4
2019-01-29T04:04:37.005Z,925.6
2019-01-29T04:05:36.727Z,925.6
2019-01-29T04:06:36.463Z,925.5
2019-01-29T04:07:36.355Z,925.6
2019-01-29T04:08:36.260Z,925.6
2019-01-29T04:09:36.000Z,925.6
2019-01-29T04:10:35.748Z,925.6
2019-01-29T04:11:36.050Z,925.6
2019-01-29T04:12:35.926Z,925.6
2019-01-29T04:13:35.822Z,925.6
2019-01-29T04:14:35.723Z,925.6
2019-01-29T04:15:35.624Z,925.7
2019-01-29T04:16:35.518Z,925.5
2019-01-29T04:17:35.407Z,925.5
2019-01-29T04:18:35.331Z,925
2019-01-29T04:19:35.238Z,925.6
2019-01-29T04:20:35.150Z,925.6
2019-01-29T04:21:35.444Z,925.6
2019-01-29T04:22:35.357Z,925
2019-01-29T04:23:35.243Z,925.7
2019-01-29T04:24:35.243Z,925.7
2019-01-29T04:25:35.151Z,925.7
2019-01-29T04:26:35.039Z,925.7
2019-01-29T04:27:34.931Z,925.8
2019-01-29T04:28:34.846Z,925.7
2019-01-29T04:29:34.761Z,925.7
2019-01-29T04:30:34.656Z,925.8
2019-01-29T04:31:35.216Z,925.8
2019-01-29T04:32:37.103Z,925.8
2019-01-29T04:33:36.970Z,925.7
2019-01-29T04:34:36.878Z,925.7
2019-01-29T04:35:36.760Z,925.6
2019-01-29T04:36:36.667Z,925.6
2019-01-29T04:37:36.533Z,925.8
2019-01-29T04:38:36.417Z,925.7
2019-01-29T04:39:36.291Z,925.8
2019-01-29T04:40:36.189Z,925.8
2019-01-29T04:41:36.533Z,925.8
2019-01-29T04:42:36.421Z,925.8
2019-01-29T04:43:36.309Z,925.7
2019-01-29T04:44:36.201Z,925.6
2019-01-29T04:45:36.115Z,925.7
2019-01-29T04:46:36.013Z,925.7
2019-01-29T04:47:35.897Z,925.7
2019-01-29T04:48:35.804Z,925.8
2019-01-29T04:49:35.683Z,925.8
2019-01-29T04:50:35.724Z,925.7
2019-01-29T04:51:36.027Z,925.8
2019-01-29T04:52:35.910Z,925.8
2019-01-29T04:53:35.781Z,925.8
2019-01-29T04:54:35.651Z,925.7
2019-01-29T04:55:35.586Z,925.8
2019-01-29T04:56:35.482Z,924.3
2019-01-29T04:57:35.380Z,925.7
2019-01-29T04:58:35.274Z,925.7
2019-01-29T04:59:35.145Z,925.8
2019-01-29T05:00:35.033Z,925.7
2019-01-29T05:01:35.423Z,925.8
2019-01-29T05:02:35.306Z,925.6
2019-01-29T05:03:35.184Z,925.8
2019-01-29T05:04:35.059Z,925.8
2019-01-29T05:05:34.958Z,925.8
2019-01-29T05:06:34.861Z,925.7
2019-01-29T05:07:34.775Z,925.8
2019-01-29T05:08:34.679Z,925.8
2019-01-29T05:09:34.575Z,925.8
2019-01-29T05:10:34.465Z,925.8
2019-01-29T05:11:34.807Z,925.8
2019-01-29T05:12:34.687Z,925.8
2019-01-29T05:13:34.581Z,924.7
2019-01-29T05:14:34.445Z,925.8
2019-01-29T05:15:34.340Z,925.8
2019-01-29T05:16:34.255Z,925.8
2019-01-29T05:17:34.143Z,925.8
2019-01-29T05:18:34.032Z,925.8
2019-01-29T05:19:33.913Z,925.8
2019-01-29T05:20:33.790Z,925.7
2019-01-29T05:21:34.103Z,925.7
2019-01-29T05:22:34.020Z,925.9
2019-01-29T05:23:33.763Z,925.8
2019-01-29T05:24:35.543Z,925.8
2019-01-29T05:25:35.265Z,925.9
2019-01-29T05:26:34.988Z,925.9
2019-01-29T05:27:34.772Z,925.8
2019-01-29T05:28:34.530Z,926
2019-01-29T05:29:34.271Z,925.9
2019-01-29T05:30:34.036Z,925.9
2019-01-29T05:31:34.353Z,925.9
2019-01-29T05:32:34.257Z,925.9
2019-01-29T05:33:34.170Z,925.8
2019-01-29T05:34:34.075Z,926
2019-01-29T05:35:33.990Z,925.8
2019-01-29T05:36:33.897Z,926
2019-01-29T05:37:33.786Z,925.7
2019-01-29T05:38:33.692Z,926
2019-01-29T05:39:33.576Z,926
2019-01-29T05:40:33.479Z,926.1
2019-01-29T05:41:33.861Z,926
2019-01-29T05:42:33.751Z,926.1
2019-01-29T05:43:33.655Z,926
2019-01-29T05:44:33.543Z,925.9
2019-01-29T05:45:33.436Z,925.8
2019-01-29T05:46:33.326Z,926
2019-01-29T05:47:33.205Z,926
2019-01-29T05:48:33.080Z,926.1
2019-01-29T05:49:33.001Z,926
2019-01-29T05:50:32.901Z,926.1
2019-01-29T05:51:33.261Z,926.1
2019-01-29T05:52:33.157Z,926.1
2019-01-29T05:53:33.063Z,926.1
2019-01-29T05:54:33.024Z,926.1
2019-01-29T05:55:32.901Z,926.1
2019-01-29T05:56:32.790Z,926
2019-01-29T05:57:32.679Z,926.1
2019-01-29T05:58:32.577Z,926.2
2019-01-29T05:59:32.486Z,926.1
2019-01-29T06:00:32.377Z,926.2
2019-01-29T06:01:32.692Z,926.1
2019-01-29T06:02:32.584Z,926.2
2019-01-29T06:03:32.471Z,926.1
2019-01-29T06:04:32.383Z,926.2
2019-01-29T06:05:32.277Z,926.1
2019-01-29T06:06:32.184Z,926
2019-01-29T06:07:32.139Z,926.2
2019-01-29T06:08:32.021Z,926.1
2019-01-29T06:09:31.981Z,926
2019-01-29T06:10:31.865Z,926
2019-01-29T06:11:32.235Z,926.1
2019-01-29T06:12:32.112Z,926.2
2019-01-29T06:13:32.013Z,926.2
2019-01-29T06:14:31.922Z,926.2
2019-01-29T06:15:31.819Z,926.2
2019-01-29T06:16:31.703Z,926.1
2019-01-29T06:17:31.585Z,926.2
2019-01-29T06:18:31.471Z,926.2
2019-01-29T06:19:31.367Z,926.3
2019-01-29T06:20:31.261Z,926.2
2019-01-29T06:21:31.616Z,926.3
2019-01-29T06:22:31.520Z,926.2
2019-01-29T06:23:31.495Z,926.2
2019-01-29T06:24:31.404Z,926.3
2019-01-29T06:25:31.324Z,926.3
2019-01-29T06:26:31.238Z,926.3
2019-01-29T06:27:31.127Z,926.3
2019-01-29T06:28:31.011Z,926.3
2019-01-29T06:29:30.905Z,926.4
2019-01-29T06:30:30.811Z,926.4
2019-01-29T06:31:31.123Z,926.3
2019-01-29T06:32:31.000Z,926.4
2019-01-29T06:33:30.724Z,926.4
2019-01-29T06:34:30.455Z,926.4
2019-01-29T06:35:30.353Z,926.5
2019-01-29T06:36:30.105Z,926.5
2019-01-29T06:37:29.855Z,926.5
2019-01-29T06:38:29.589Z,926.3
2019-01-29T06:39:29.336Z,926.5
2019-01-29T06:40:29.073Z,926.5
2019-01-29T06:41:29.427Z,926.6
2019-01-29T06:42:29.314Z,926.3
2019-01-29T06:43:29.207Z,926.4
2019-01-29T06:44:29.087Z,926.5
2019-01-29T06:45:28.997Z,926.6
2019-01-29T06:46:29.119Z,926.5
2019-01-29T06:47:29.033Z,926.5
2019-01-29T06:48:28.931Z,926.5
2019-01-29T06:49:28.822Z,926.5
2019-01-29T06:50:28.723Z,926.6
2019-01-29T06:51:29.054Z,926.6
2019-01-29T06:52:28.951Z,926.6
2019-01-29T06:53:28.853Z,926.6
2019-01-29T06:54:35.178Z,926.6
2019-01-29T06:55:34.927Z,926.5
2019-01-29T06:56:34.667Z,926.6
2019-01-29T06:57:34.392Z,926.6
2019-01-29T06:58:34.148Z,926.6
2019-01-29T06:59:33.878Z,926.7
2019-01-29T07:00:33.614Z,926.6
2019-01-29T07:01:33.939Z,926.5
2019-01-29T07:02:33.822Z,926.6
2019-01-29T07:03:33.717Z,926.6
2019-01-29T07:04:33.634Z,926.7
2019-01-29T07:05:33.561Z,926.6
2019-01-29T07:06:33.541Z,926.7
2019-01-29T07:07:33.433Z,926.7
2019-01-29T07:08:33.309Z,926.6
2019-01-29T07:09:33.242Z,926.7
2019-01-29T07:10:33.148Z,926.8
2019-01-29T07:11:33.461Z,926.8
2019-01-29T07:12:33.379Z,926.8
2019-01-29T07:13:33.319Z,926.8
2019-01-29T07:14:33.204Z,926.6
2019-01-29T07:15:33.131Z,926.8
2019-01-29T07:16:33.010Z,926.8
2019-01-29T07:17:32.882Z,926.9
2019-01-29T07:18:32.781Z,926.9
2019-01-29T07:19:32.682Z,926.8
2019-01-29T07:20:32.570Z,926.9
2019-01-29T07:21:32.875Z,926.9
2019-01-29T07:22:32.790Z,926.9
2019-01-29T07:23:32.685Z,926.8
2019-01-29T07:24:32.575Z,925.3
2019-01-29T07:25:32.456Z,926.8
2019-01-29T07:26:32.381Z,927
2019-01-29T07:27:32.290Z,926.9
2019-01-29T07:28:32.190Z,926
2019-01-29T07:29:32.088Z,927
2019-01-29T07:30:31.978Z,926.9
2019-01-29T07:31:32.284Z,927
2019-01-29T07:32:32.181Z,926.9
2019-01-29T07:33:32.072Z,927
2019-01-29T07:34:31.957Z,927
2019-01-29T07:35:31.864Z,927
2019-01-29T07:36:31.752Z,927
2019-01-29T07:37:31.654Z,927
2019-01-29T07:38:31.540Z,927
2019-01-29T07:39:31.411Z,926.9
2019-01-29T07:40:31.300Z,926.9
2019-01-29T07:41:31.645Z,926.9
2019-01-29T07:42:31.543Z,927
2019-01-29T07:43:31.436Z,926.9
2019-01-29T07:44:31.325Z,927
2019-01-29T07:45:31.222Z,927
2019-01-29T07:46:31.133Z,927
2019-01-29T07:47:31.036Z,927
2019-01-29T07:48:30.932Z,927
2019-01-29T07:49:30.824Z,927
2019-01-29T07:50:30.747Z,927
2019-01-29T07:51:31.133Z,927
2019-01-29T07:52:31.012Z,926.8
2019-01-29T07:53:30.944Z,927
2019-01-29T07:54:34.413Z,925.6
2019-01-29T07:55:34.307Z,926.9
2019-01-29T07:56:34.198Z,927
2019-01-29T07:57:34.083Z,927.1
2019-01-29T07:58:34.005Z,927
2019-01-29T07:59:34.243Z,927.1
2019-01-29T08:00:34.204Z,927.1
2019-01-29T08:01:34.522Z,927
2019-01-29T08:02:34.408Z,927
2019-01-29T08:03:38.104Z,927
2019-01-29T08:04:38.338Z,927
2019-01-29T08:05:38.219Z,927
2019-01-29T08:06:38.110Z,927
2019-01-29T08:07:38.003Z,926.9
2019-01-29T08:08:37.917Z,927
2019-01-29T08:09:37.812Z,927
2019-01-29T08:10:37.692Z,926.9
2019-01-29T08:11:38.016Z,927
2019-01-29T08:12:37.920Z,926.9
2019-01-29T08:13:37.854Z,927
2019-01-29T08:14:37.767Z,927
2019-01-29T08:15:37.483Z,927
2019-01-29T08:16:37.206Z,926.9
2019-01-29T08:17:36.920Z,927.1
2019-01-29T08:18:36.636Z,927.1
2019-01-29T08:19:36.396Z,927
2019-01-29T08:20:36.289Z,927
2019-01-29T08:21:36.636Z,927
2019-01-29T08:22:36.535Z,926.9
2019-01-29T08:23:36.433Z,927
2019-01-29T08:24:36.319Z,927
2019-01-29T08:25:36.238Z,926.9
2019-01-29T08:26:36.116Z,927
2019-01-29T08:27:36.010Z,926.9
2019-01-29T08:28:35.912Z,927
2019-01-29T08:29:35.816Z,926.9
2019-01-29T08:30:35.779Z,926.8
2019-01-29T08:31:36.097Z,926.9
2019-01-29T08:32:35.990Z,926.8
2019-01-29T08:33:35.978Z,926.8
2019-01-29T08:34:35.871Z,926.8
2019-01-29T08:35:35.806Z,926.7
2019-01-29T08:36:35.720Z,925.3
2019-01-29T08:37:35.613Z,926.7
2019-01-29T08:38:35.520Z,925.3
2019-01-29T08:39:35.414Z,926.7
2019-01-29T08:40:35.327Z,926.7
2019-01-29T08:41:35.683Z,926.8
2019-01-29T08:42:35.585Z,926.8
2019-01-29T08:43:35.488Z,926.9
2019-01-29T08:44:35.404Z,926.8
2019-01-29T08:45:35.309Z,926.8
2019-01-29T08:46:35.214Z,926.9
2019-01-29T08:47:35.094Z,926.9
2019-01-29T08:48:34.980Z,927
2019-01-29T08:49:34.893Z,926.9
2019-01-29T08:50:34.790Z,926.8
2019-01-29T08:51:35.188Z,926.8
2019-01-29T08:52:35.088Z,926.8
2019-01-29T08:53:34.973Z,926.8
2019-01-29T08:54:34.869Z,926.9
2019-01-29T08:55:34.773Z,926.9
2019-01-29T08:56:34.661Z,926.9
2019-01-29T08:57:34.565Z,926.8
2019-01-29T08:58:34.488Z,926.9
2019-01-29T08:59:34.407Z,926.9
2019-01-29T09:00:34.350Z,926.9
2019-01-29T09:01:34.677Z,926.9
2019-01-29T09:02:34.593Z,926.9
2019-01-29T09:03:34.469Z,926.9
2019-01-29T09:04:34.362Z,926.9
2019-01-29T09:05:34.263Z,926.9
2019-01-29T09:06:34.140Z,926.9
2019-01-29T09:07:34.028Z,926.8
2019-01-29T09:08:33.937Z,926.8
2019-01-29T09:09:33.825Z,926.9
2019-01-29T09:10:33.715Z,926.9
2019-01-29T09:11:34.028Z,926.9
2019-01-29T09:12:33.986Z,926.8
2019-01-29T09:13:33.967Z,926.9
2019-01-29T09:14:33.845Z,926.9
2019-01-29T09:15:33.722Z,926.6
2019-01-29T09:16:33.616Z,926.7
2019-01-29T09:17:33.501Z,926.9
2019-01-29T09:18:33.390Z,926.8
2019-01-29T09:19:33.308Z,926.8
2019-01-29T09:20:33.205Z,926.8
2019-01-29T09:21:33.540Z,926.7
2019-01-29T09:22:33.430Z,926.7
2019-01-29T09:23:33.549Z,926.6
2019-01-29T09:24:33.478Z,926.7
2019-01-29T09:25:33.387Z,926.7
2019-01-29T09:26:33.108Z,926.7
2019-01-29T09:27:32.986Z,926.7
2019-01-29T09:28:32.713Z,926.8
2019-01-29T09:29:32.613Z,926.7
2019-01-29T09:30:32.352Z,926.7
2019-01-29T09:31:32.653Z,926.8
2019-01-29T09:32:32.556Z,926.7
2019-01-29T09:33:32.452Z,926.8
2019-01-29T09:34:32.351Z,926.8
2019-01-29T09:35:32.242Z,926.7
2019-01-29T09:36:34.359Z,926.7
2019-01-29T09:37:34.276Z,926.1
2019-01-29T09:38:34.249Z,926.7
2019-01-29T09:39:34.175Z,926.8
2019-01-29T09:40:34.100Z,926.8
2019-01-29T09:41:34.434Z,926.7
2019-01-29T09:42:34.339Z,926.7
2019-01-29T09:43:34.263Z,926.8
2019-01-29T09:44:34.148Z,926.7
2019-01-29T09:45:33.871Z,926.8
2019-01-29T09:46:33.804Z,926.7
2019-01-29T09:47:33.689Z,926.8
2019-01-29T09:48:33.560Z,926.8
2019-01-29T09:49:33.444Z,926.7
2019-01-29T09:50:33.345Z,926.7
2019-01-29T09:51:33.663Z,926.7
2019-01-29T09:52:33.576Z,926.8
2019-01-29T09:53:33.463Z,926.4
2019-01-29T09:54:33.353Z,926.5
2019-01-29T09:55:33.233Z,926.7
2019-01-29T09:56:33.106Z,926.7
2019-01-29T09:57:33.040Z,926.6
2019-01-29T09:58:32.931Z,926.6
2019-01-29T09:59:32.843Z,926.6
2019-01-29T10:00:32.747Z,926.6
2019-01-29T10:01:33.308Z,926.4
2019-01-29T10:02:33.257Z,926.6
2019-01-29T10:03:33.188Z,926.6
2019-01-29T10:04:33.090Z,926.6
2019-01-29T10:05:32.983Z,926.6
2019-01-29T10:06:32.889Z,926.5
2019-01-29T10:07:32.789Z,926.6
2019-01-29T10:08:32.683Z,926.6
2019-01-29T10:09:32.587Z,926.6
2019-01-29T10:10:32.491Z,926.5
2019-01-29T10:11:32.795Z,926.5
2019-01-29T10:12:32.684Z,926.5
2019-01-29T10:13:32.588Z,926.5
2019-01-29T10:14:32.475Z,925.3
2019-01-29T10:15:32.355Z,926.5
2019-01-29T10:16:32.227Z,926.5
2019-01-29T10:17:32.115Z,926.5
2019-01-29T10:18:31.832Z,926.4
2019-01-29T10:19:31.767Z,926.4
2019-01-29T10:20:31.693Z,926.3
2019-01-29T10:21:31.993Z,926.4
2019-01-29T10:22:31.897Z,926.2
2019-01-29T10:23:31.789Z,926.3
2019-01-29T10:24:31.715Z,926.2
2019-01-29T10:25:38.946Z,926.3
2019-01-29T10:26:38.843Z,926.2
2019-01-29T10:27:38.747Z,926.2
2019-01-29T10:28:38.639Z,926.2
2019-01-29T10:29:38.521Z,926.2
2019-01-29T10:30:38.463Z,926.2
2019-01-29T10:31:38.893Z,926.1
2019-01-29T10:32:38.792Z,926.2
2019-01-29T10:33:38.690Z,926.2
2019-01-29T10:34:38.625Z,926.1
2019-01-29T10:35:38.504Z,926.1
2019-01-29T10:36:38.419Z,926
2019-01-29T10:37:38.319Z,926
2019-01-29T10:38:38.195Z,926.1
2019-01-29T10:39:38.097Z,926
2019-01-29T10:40:37.969Z,926.1
2019-01-29T10:41:38.283Z,926
2019-01-29T10:42:38.187Z,925.8
2019-01-29T10:43:38.077Z,925.8
2019-01-29T10:44:37.954Z,926
2019-01-29T10:45:37.832Z,926
2019-01-29T10:46:37.747Z,925.9
2019-01-29T10:47:37.704Z,926
2019-01-29T10:48:37.618Z,925.8
2019-01-29T10:49:37.509Z,925.7
2019-01-29T10:50:37.411Z,925.8
2019-01-29T10:51:37.813Z,925.9
2019-01-29T10:52:37.760Z,925.8
2019-01-29T10:53:37.667Z,925.8
2019-01-29T10:54:37.558Z,924.9
2019-01-29T10:55:47.950Z,925.7
2019-01-29T10:56:47.715Z,925.7
2019-01-29T10:57:47.628Z,925.7
2019-01-29T10:58:47.523Z,925.6
2019-01-29T10:59:47.482Z,925.7
2019-01-29T11:00:47.369Z,925.7
2019-01-29T11:01:47.699Z,925.6
2019-01-29T11:02:47.610Z,925.6
2019-01-29T11:03:47.539Z,925.5
2019-01-29T11:04:47.454Z,925.5
2019-01-29T11:05:47.351Z,925.4
2019-01-29T11:06:47.227Z,925.6
2019-01-29T11:07:47.118Z,925.6
2019-01-29T11:08:47.045Z,925.5
2019-01-29T11:09:49.061Z,925.5
2019-01-29T11:10:48.931Z,925.5
2019-01-29T11:11:49.241Z,925.5
2019-01-29T11:12:49.384Z,925.5
2019-01-29T11:13:49.285Z,925.5
2019-01-29T11:14:49.165Z,925.4
2019-01-29T11:15:49.153Z,925.5
2019-01-29T11:16:49.099Z,925.5
2019-01-29T11:17:49.015Z,925.5
2019-01-29T11:18:48.918Z,925.5
2019-01-29T11:19:48.832Z,925.5
2019-01-29T11:20:48.717Z,925.5
2019-01-29T11:21:49.070Z,925.5
2019-01-29T11:22:48.963Z,925.5
2019-01-29T11:23:48.903Z,925.5
2019-01-29T11:24:48.802Z,925.3
2019-01-29T11:25:56.970Z,925.4
2019-01-29T11:26:56.883Z,925.5
2019-01-29T11:27:56.809Z,925.3
2019-01-29T11:28:56.734Z,925.4
2019-01-29T11:29:56.634Z,924.7
2019-01-29T11:30:56.519Z,925.3
2019-01-29T11:31:56.917Z,925.3
2019-01-29T11:32:56.862Z,925.3
2019-01-29T11:33:56.755Z,925.2
2019-01-29T11:34:56.632Z,925.3
2019-01-29T11:35:56.523Z,925.3
2019-01-29T11:36:56.401Z,925.4
2019-01-29T11:37:56.364Z,925.3
2019-01-29T11:38:56.291Z,925.3
2019-01-29T11:39:56.186Z,925.1
2019-01-29T11:40:56.078Z,925.1
2019-01-29T11:41:56.399Z,925.1
2019-01-29T11:42:56.321Z,923.9
2019-01-29T11:43:56.211Z,925.1
2019-01-29T11:44:56.109Z,925.1
2019-01-29T11:45:55.991Z,925.3
2019-01-29T11:46:55.891Z,925.2
2019-01-29T11:47:55.781Z,925.2
2019-01-29T11:48:55.692Z,925.2
2019-01-29T11:49:55.590Z,925.2
2019-01-29T11:50:55.475Z,925.2
2019-01-29T11:51:55.784Z,925.2
2019-01-29T11:52:55.679Z,925.1
2019-01-29T11:53:55.587Z,925.1
2019-01-29T11:54:55.473Z,925.2
2019-01-29T11:56:04.036Z,924.9
2019-01-29T11:57:04.130Z,925.1
2019-01-29T11:58:04.020Z,924.5
2019-01-29T11:59:03.964Z,925
2019-01-29T12:00:03.863Z,925
2019-01-29T12:01:05.555Z,925
2019-01-29T12:02:06.117Z,925
2019-01-29T12:03:06.007Z,925
2019-01-29T12:04:05.913Z,925
2019-01-29T12:05:05.810Z,924.9
2019-01-29T12:06:05.704Z,925
2019-01-29T12:07:05.590Z,924.8
2019-01-29T12:08:05.483Z,924.7
2019-01-29T12:09:05.388Z,924.7
2019-01-29T12:10:05.299Z,924.8
2019-01-29T12:11:05.184Z,924.6
2019-01-29T12:12:05.515Z,923.3
2019-01-29T12:13:05.420Z,924.6
2019-01-29T12:14:05.332Z,924.6
2019-01-29T12:15:05.239Z,924.7
2019-01-29T12:16:05.139Z,924.7
2019-01-29T12:17:05.065Z,924.6
2019-01-29T12:18:04.981Z,924.2
2019-01-29T12:19:04.736Z,923.8
2019-01-29T12:20:04.626Z,924.6
2019-01-29T12:21:04.520Z,924.6
2019-01-29T12:22:04.909Z,924.6
2019-01-29T12:23:04.808Z,924.6
2019-01-29T12:24:04.702Z,924.5
2019-01-29T12:25:04.612Z,924.5
2019-01-29T12:26:13.784Z,924.3
2019-01-29T12:27:13.660Z,924.4
2019-01-29T12:28:13.542Z,924.4
2019-01-29T12:29:13.422Z,924.5
2019-01-29T12:30:15.355Z,924.4
2019-01-29T12:31:15.258Z,924.3
2019-01-29T12:32:15.544Z,924.5
2019-01-29T12:33:15.437Z,924.5
2019-01-29T12:34:15.338Z,924.5
2019-01-29T12:35:15.238Z,924.4
2019-01-29T12:36:15.159Z,924.4
2019-01-29T12:37:15.051Z,924.4
2019-01-29T12:38:14.940Z,924.3
2019-01-29T12:39:14.832Z,924.3
2019-01-29T12:40:14.739Z,924.3
2019-01-29T12:41:14.620Z,924.1
2019-01-29T12:42:14.982Z,924.3
2019-01-29T12:43:14.880Z,924.3
2019-01-29T12:44:14.806Z,924.3
2019-01-29T12:45:14.704Z,924.2
2019-01-29T12:46:14.821Z,924.3
2019-01-29T12:47:14.726Z,924.2
2019-01-29T12:48:14.631Z,924.2
2019-01-29T12:49:14.554Z,924.2
2019-01-29T12:50:14.436Z,924.1
2019-01-29T12:51:14.326Z,924.1
2019-01-29T12:52:14.662Z,924.1
2019-01-29T12:53:14.618Z,924.1
2019-01-29T12:54:14.506Z,923.6
2019-01-29T12:55:14.402Z,923.9
2019-01-29T12:56:22.442Z,924
2019-01-29T12:57:22.316Z,924
2019-01-29T12:58:22.246Z,924
2019-01-29T12:59:22.138Z,924